Terminal Aerodrome Forecast
Issued by NWS

Home | Current Version | Previous Version | Text Only | Print | Product List | Glossary On
Versions: 1 2 3 4 5 6 7 8 9 10 11 12
591
FTUS43 KMPX 211740
TAFAXN
TAF
KAXN 211740Z 2118/2218 02007KT P6SM OVC100
     FM220100 02008KT P6SM SCT007 OVC100
     FM220800 04010KT P6SM OVC007
     FM221000 04014KT P6SM OVC004=

USA.gov is the U.S. government's official web portal to all federal, state and local government web resources and services.